KAZO

Kalamazoo / Battle Creek International Airport

Kalamazoo, Michigan, USA
METAR KAZO 242353Z 05007KT 10SM OVC025 14/10 A2998 RMK AO2 SLP155 T01440100 10167 20144 55000
Observed Flight Rules
Apr-24 @ 23:53 UTC (50 minutes ago) Marginal Visual Flight Rules
Wind Visibility Clouds
50° at 7 knots 10 miles
  • Overcast at 2,500' AGL
Temperatures Readings
Current 14°C / 57°F
Dewpoint 10°C / 50°F
Humidity 77%
Altimeter 29.98" Hg
Pressure 1015.5 hPa
Elevation 272
METAR KAZO 242353Z 05007KT 10SM OVC025 14/10 A2998 RMK AO2 SLP155 T01440100 10167 20144 55000
Observed Flight Rules
Apr-24 @ 23:53 UTC
(50 minutes ago)
MVFR
Wind Visibility
50° at 7 knots 10 miles
Clouds
  • Overcast at 2,500' AGL
Temperature Dewpoint
14°C / 57°F 10°C / 50°F
Humidity Altimeter Pressure
77% 29.98" Hg 1015.5 hPa